createdAt,value
2023-04-29T00:00:41.870Z,11.23
2023-04-29T00:01:45.694Z,11.19
2023-04-29T00:02:49.567Z,11.21
2023-04-29T00:03:54.271Z,11.20
2023-04-29T00:04:58.563Z,11.15
2023-04-29T00:06:04.996Z,11.16
2023-04-29T00:07:09.565Z,11.17
2023-04-29T00:08:13.464Z,11.15
2023-04-29T00:09:17.327Z,11.14
2023-04-29T00:10:25.192Z,11.17
2023-04-29T00:11:29.184Z,11.17
2023-04-29T00:12:34.009Z,11.17
2023-04-29T00:13:41.672Z,11.16
2023-04-29T00:14:46.037Z,11.19
2023-04-29T00:15:50.693Z,11.17
2023-04-29T00:16:54.609Z,11.19
2023-04-29T00:18:00.175Z,11.18
2023-04-29T00:19:05.783Z,11.15
2023-04-29T00:20:12.760Z,11.16
2023-04-29T00:21:16.530Z,11.15
2023-04-29T00:22:22.209Z,11.18
2023-04-29T00:23:27.127Z,11.13
2023-04-29T00:24:31.308Z,11.08
2023-04-29T00:25:35.720Z,11.08
2023-04-29T00:26:41.497Z,11.10
2023-04-29T00:27:45.852Z,11.07
2023-04-29T00:28:50.000Z,11.08
2023-04-29T00:29:54.623Z,11.09
2023-04-29T00:30:58.670Z,11.09
2023-04-29T00:32:03.671Z,11.04
2023-04-29T00:33:10.963Z,11.04
2023-04-29T00:34:15.132Z,11.06
2023-04-29T00:35:19.500Z,11.08
2023-04-29T00:36:23.394Z,11.08
2023-04-29T00:37:27.273Z,11.04
2023-04-29T00:38:31.521Z,11.04
2023-04-29T00:39:35.521Z,11.03
2023-04-29T00:40:39.653Z,11.00
2023-04-29T00:41:43.568Z,10.99
2023-04-29T00:42:47.598Z,10.95
2023-04-29T00:43:52.736Z,10.95
2023-04-29T00:44:56.994Z,10.97
2023-04-29T00:46:01.178Z,10.98
2023-04-29T00:47:07.759Z,10.96
2023-04-29T00:48:11.450Z,10.97
2023-04-29T00:49:16.125Z,10.95
2023-04-29T00:50:22.123Z,10.93
2023-04-29T00:51:27.248Z,10.92
2023-04-29T00:52:34.503Z,10.88
2023-04-29T00:53:39.896Z,10.86
2023-04-29T00:54:45.205Z,10.80
2023-04-29T00:55:52.063Z,10.74
2023-04-29T00:56:59.477Z,10.78
2023-04-29T00:58:07.746Z,10.81
2023-04-29T00:59:15.567Z,10.77
2023-04-29T01:00:20.646Z,10.76
2023-04-29T01:01:25.006Z,10.74
2023-04-29T01:02:30.238Z,10.70
2023-04-29T01:03:34.529Z,10.69
2023-04-29T01:04:38.689Z,10.71
2023-04-29T01:05:47.445Z,10.71
2023-04-29T01:07:53.804Z,10.67
2023-04-29T01:09:48.041Z,10.66
2023-04-29T01:11:30.546Z,10.59
2023-04-29T01:12:47.231Z,10.57
2023-04-29T01:14:09.306Z,10.53
2023-04-29T01:15:23.503Z,10.50
2023-04-29T01:16:53.645Z,10.43
2023-04-29T01:18:26.203Z,10.42
2023-04-29T01:19:50.933Z,10.33
2023-04-29T01:20:57.099Z,10.41
2023-04-29T01:22:01.059Z,10.41
2023-04-29T01:23:06.358Z,10.42
2023-04-29T01:24:10.169Z,10.45
2023-04-29T01:25:14.522Z,10.48
2023-04-29T01:26:19.512Z,10.46
2023-04-29T01:27:35.486Z,10.47
2023-04-29T01:28:57.355Z,10.47
2023-04-29T01:30:19.549Z,10.42
2023-04-29T01:31:32.834Z,10.40
2023-04-29T01:32:51.898Z,10.39
2023-04-29T01:34:02.039Z,10.40
2023-04-29T01:35:55.705Z,10.37
2023-04-29T01:37:40.233Z,10.26
2023-04-29T01:39:58.577Z,10.17
2023-04-29T01:41:31.983Z,10.17
2023-04-29T01:43:07.450Z,10.18
2023-04-29T01:44:24.140Z,10.13
2023-04-29T01:45:29.681Z,10.14
2023-04-29T01:46:35.348Z,10.19
2023-04-29T01:47:41.088Z,10.17
2023-04-29T01:48:44.873Z,10.19
2023-04-29T01:49:50.209Z,10.17
2023-04-29T01:50:54.048Z,10.18
2023-04-29T01:51:57.977Z,10.25
2023-04-29T01:53:14.032Z,10.27
2023-04-29T01:54:18.620Z,10.23
2023-04-29T01:55:23.482Z,10.27
2023-04-29T01:56:27.376Z,10.22
2023-04-29T01:57:31.542Z,10.16
2023-04-29T01:58:36.236Z,10.17
2023-04-29T01:59:40.813Z,10.20
2023-04-29T02:00:47.695Z,10.22
2023-04-29T02:01:52.100Z,10.25
2023-04-29T02:03:04.119Z,10.26
2023-04-29T02:04:13.343Z,10.25
2023-04-29T02:05:17.462Z,10.27
2023-04-29T02:06:21.681Z,10.32
2023-04-29T02:07:25.464Z,10.35
2023-04-29T02:08:29.791Z,10.34
2023-04-29T02:09:33.542Z,10.37
2023-04-29T02:10:37.569Z,10.37
2023-04-29T02:11:41.899Z,10.38
2023-04-29T02:12:46.624Z,10.34
2023-04-29T02:13:50.884Z,10.36
2023-04-29T02:14:55.294Z,10.36
2023-04-29T02:16:09.629Z,10.39
2023-04-29T02:17:14.678Z,10.39
2023-04-29T02:18:19.264Z,10.37
2023-04-29T02:19:23.418Z,10.37
2023-04-29T02:20:27.697Z,10.37
2023-04-29T02:21:32.261Z,10.34
2023-04-29T02:22:36.152Z,10.37
2023-04-29T02:23:43.232Z,10.38
2023-04-29T02:24:48.302Z,10.36
2023-04-29T02:25:52.469Z,10.38
2023-04-29T02:26:56.485Z,10.40
2023-04-29T02:28:00.275Z,10.40
2023-04-29T02:29:09.425Z,10.42
2023-04-29T02:30:13.695Z,10.43
2023-04-29T02:31:17.835Z,10.41
2023-04-29T02:32:21.595Z,10.43
2023-04-29T02:33:25.863Z,10.38
2023-04-29T02:34:33.525Z,10.40
2023-04-29T02:35:38.707Z,10.33
2023-04-29T02:36:50.533Z,10.34
2023-04-29T02:38:03.287Z,10.29
2023-04-29T02:39:12.662Z,10.32
2023-04-29T02:40:19.642Z,10.33
2023-04-29T02:41:28.256Z,10.32
2023-04-29T02:42:35.618Z,10.31
2023-04-29T02:43:41.263Z,10.28
2023-04-29T02:44:48.160Z,10.28
2023-04-29T02:45:59.336Z,10.28
2023-04-29T02:47:08.840Z,10.27
2023-04-29T02:48:14.869Z,10.33
2023-04-29T02:49:19.382Z,10.37
2023-04-29T02:50:36.523Z,10.38
2023-04-29T02:51:41.780Z,10.39
2023-04-29T02:52:50.675Z,10.43
2023-04-29T02:54:04.860Z,10.37
2023-04-29T02:55:10.625Z,10.39
2023-04-29T02:56:18.076Z,10.37
2023-04-29T02:57:22.068Z,10.39
2023-04-29T02:58:30.580Z,10.40
2023-04-29T02:59:38.292Z,10.39
2023-04-29T03:00:42.984Z,10.39
2023-04-29T03:01:50.792Z,10.41
2023-04-29T03:02:56.624Z,10.37
2023-04-29T03:04:02.193Z,10.37
2023-04-29T03:05:19.061Z,10.31
2023-04-29T03:06:26.247Z,10.32
2023-04-29T03:07:31.202Z,10.36
2023-04-29T03:08:38.564Z,10.38
2023-04-29T03:09:44.914Z,10.38
2023-04-29T03:10:49.280Z,10.39
2023-04-29T03:11:53.746Z,10.42
2023-04-29T03:13:17.006Z,10.43
2023-04-29T03:14:24.769Z,10.40
2023-04-29T03:15:36.015Z,10.45
2023-04-29T03:16:43.886Z,10.45
2023-04-29T03:17:49.623Z,10.42
2023-04-29T03:18:59.818Z,10.44
2023-04-29T03:20:09.294Z,10.39
2023-04-29T03:21:23.284Z,10.35
2023-04-29T03:22:27.375Z,10.31
2023-04-29T03:23:32.071Z,10.35
2023-04-29T03:24:46.724Z,10.35
2023-04-29T03:25:53.476Z,10.39
2023-04-29T03:27:12.256Z,10.31
2023-04-29T03:28:29.490Z,10.31
2023-04-29T03:29:37.706Z,10.36
2023-04-29T03:30:57.302Z,10.38
2023-04-29T03:32:14.882Z,10.37
2023-04-29T03:33:18.708Z,10.40
2023-04-29T03:34:22.838Z,10.40
2023-04-29T03:35:26.506Z,10.37
2023-04-29T03:36:30.730Z,10.39
2023-04-29T03:37:34.908Z,10.37
2023-04-29T03:38:38.600Z,10.37
2023-04-29T03:39:43.209Z,10.44
2023-04-29T03:40:47.422Z,10.47
2023-04-29T03:41:51.514Z,10.49
2023-04-29T03:42:55.516Z,10.47
2023-04-29T03:44:00.963Z,10.42
2023-04-29T03:45:42.827Z,10.49
2023-04-29T03:46:56.367Z,10.49
2023-04-29T03:48:01.130Z,10.48
2023-04-29T03:49:11.410Z,10.45
2023-04-29T03:50:17.526Z,10.46
2023-04-29T03:51:30.189Z,10.48
2023-04-29T03:52:38.890Z,10.50
2023-04-29T03:53:45.181Z,10.47
2023-04-29T03:54:50.270Z,10.39
2023-04-29T03:56:00.502Z,10.41
2023-04-29T03:57:05.201Z,10.39
2023-04-29T03:58:24.265Z,10.42
2023-04-29T03:59:34.528Z,10.40
2023-04-29T04:00:40.341Z,10.35
2023-04-29T04:01:49.193Z,10.38
2023-04-29T04:03:48.016Z,10.34
2023-04-29T04:04:33.540Z,10.30
2023-04-29T04:05:42.817Z,10.32
2023-04-29T04:06:51.923Z,10.30
2023-04-29T04:08:09.042Z,10.28
2023-04-29T04:09:27.876Z,10.32
2023-04-29T04:10:39.350Z,10.29
2023-04-29T04:11:49.089Z,10.32
2023-04-29T04:13:02.519Z,10.29
2023-04-29T04:14:13.195Z,10.28
2023-04-29T04:15:17.264Z,10.31
2023-04-29T04:16:24.912Z,10.30
2023-04-29T04:17:30.675Z,10.29
2023-04-29T04:18:35.078Z,10.17
2023-04-29T04:19:40.766Z,10.25
2023-04-29T04:20:49.038Z,10.23
2023-04-29T04:21:56.906Z,10.27
2023-04-29T04:23:01.470Z,10.32
2023-04-29T04:24:17.235Z,10.34
2023-04-29T04:25:29.992Z,10.30
2023-04-29T04:26:42.518Z,10.29
2023-04-29T04:27:51.602Z,10.33
2023-04-29T04:28:59.231Z,10.36
2023-04-29T04:30:12.117Z,10.39
2023-04-29T04:31:20.361Z,10.43
2023-04-29T04:32:25.436Z,10.44
2023-04-29T04:33:33.252Z,10.39
2023-04-29T04:34:42.323Z,10.35
2023-04-29T04:35:47.237Z,10.32
2023-04-29T04:36:52.116Z,10.33
2023-04-29T04:37:59.576Z,10.35
2023-04-29T04:39:04.776Z,10.37
2023-04-29T04:40:12.285Z,10.37
2023-04-29T04:41:17.499Z,10.42
2023-04-29T04:42:24.134Z,10.44
2023-04-29T04:43:29.238Z,10.40
2023-04-29T04:44:34.457Z,10.43
2023-04-29T04:45:42.385Z,10.41
2023-04-29T04:46:47.872Z,10.44
2023-04-29T04:47:55.791Z,10.46
2023-04-29T04:49:06.402Z,10.50
2023-04-29T04:50:12.427Z,10.49
2023-04-29T04:51:21.618Z,10.48
2023-04-29T04:52:25.652Z,10.47
2023-04-29T04:53:36.031Z,10.45
2023-04-29T04:54:50.758Z,10.50
2023-04-29T04:55:55.949Z,10.46
2023-04-29T04:56:59.705Z,10.47
2023-04-29T04:58:14.611Z,10.51
2023-04-29T04:59:27.826Z,10.53
2023-04-29T05:00:39.300Z,10.56
2023-04-29T05:01:44.571Z,10.59
2023-04-29T05:02:51.916Z,10.58
2023-04-29T05:04:01.351Z,10.60
2023-04-29T05:05:09.518Z,10.61
2023-04-29T05:06:14.299Z,10.59
2023-04-29T05:07:18.998Z,10.60
2023-04-29T05:08:23.745Z,10.54
2023-04-29T05:09:32.351Z,10.57
2023-04-29T05:10:38.800Z,10.60
2023-04-29T05:11:48.077Z,10.49
2023-04-29T05:12:54.088Z,10.50
2023-04-29T05:13:58.523Z,10.53
2023-04-29T05:15:04.806Z,10.59
2023-04-29T05:16:09.586Z,10.59
2023-04-29T05:17:15.353Z,10.56
2023-04-29T05:18:23.895Z,10.50
2023-04-29T05:19:29.334Z,10.59
2023-04-29T05:20:33.776Z,10.61
2023-04-29T05:21:39.904Z,10.63
2023-04-29T05:22:46.322Z,10.70
2023-04-29T05:23:52.501Z,10.71
2023-04-29T05:25:03.672Z,10.73
2023-04-29T05:26:08.599Z,10.78
2023-04-29T05:27:15.908Z,10.80
2023-04-29T05:28:32.771Z,10.80
2023-04-29T05:29:39.034Z,10.86
2023-04-29T05:30:45.651Z,10.86
2023-04-29T05:31:52.777Z,10.89
2023-04-29T05:32:59.832Z,10.92
2023-04-29T05:34:07.074Z,10.94
2023-04-29T05:35:13.603Z,10.97
2023-04-29T05:36:17.449Z,11.01
2023-04-29T05:37:21.169Z,10.98
2023-04-29T05:38:29.101Z,10.98
2023-04-29T05:39:33.022Z,11.05
2023-04-29T05:40:36.933Z,11.02
2023-04-29T05:41:40.682Z,11.01
2023-04-29T05:42:44.713Z,11.02
2023-04-29T05:43:48.670Z,11.04
2023-04-29T05:44:52.384Z,11.10
2023-04-29T05:45:56.521Z,11.15
2023-04-29T05:47:01.742Z,11.12
2023-04-29T05:48:12.655Z,11.17
2023-04-29T05:49:17.595Z,11.21
2023-04-29T05:50:24.796Z,11.22
2023-04-29T05:51:34.096Z,11.26
2023-04-29T05:52:40.653Z,11.26
2023-04-29T05:53:46.046Z,11.32
2023-04-29T05:54:54.698Z,11.33
2023-04-29T05:56:07.800Z,11.38
2023-04-29T05:57:21.280Z,11.37
2023-04-29T05:58:28.949Z,11.39
2023-04-29T05:59:39.551Z,11.47
2023-04-29T06:00:59.995Z,11.49
2023-04-29T06:02:10.056Z,11.53
2023-04-29T06:03:27.278Z,11.51
2023-04-29T06:04:36.790Z,11.50
2023-04-29T06:05:51.442Z,11.54
2023-04-29T06:07:00.925Z,11.60
2023-04-29T06:08:34.856Z,11.63
2023-04-29T06:09:46.181Z,11.65
2023-04-29T06:10:55.089Z,11.68
2023-04-29T06:11:59.450Z,11.67
2023-04-29T06:13:31.385Z,11.63
2023-04-29T06:14:50.512Z,11.62
2023-04-29T06:15:55.288Z,11.63
2023-04-29T06:17:13.692Z,11.68
2023-04-29T06:18:47.092Z,11.69
2023-04-29T06:19:53.567Z,11.67
2023-04-29T06:21:02.511Z,11.73
2023-04-29T06:22:12.642Z,11.74
2023-04-29T06:23:18.440Z,11.76
2023-04-29T06:24:36.403Z,11.78
2023-04-29T06:25:52.737Z,11.77
2023-04-29T06:26:58.982Z,11.81
2023-04-29T06:28:14.824Z,11.85
2023-04-29T06:29:30.840Z,11.92
2023-04-29T06:30:35.698Z,11.96
2023-04-29T06:31:39.757Z,11.93
2023-04-29T06:32:46.705Z,11.99
2023-04-29T06:33:56.158Z,11.99
2023-04-29T06:35:04.906Z,12.05
2023-04-29T06:36:17.881Z,12.00
2023-04-29T06:37:38.290Z,12.10
2023-04-29T06:38:42.750Z,12.11
2023-04-29T06:39:48.981Z,12.12
2023-04-29T06:40:59.600Z,12.19
2023-04-29T06:42:03.891Z,12.21
2023-04-29T06:43:18.479Z,12.12
2023-04-29T06:44:32.311Z,12.22
2023-04-29T06:45:37.302Z,12.27
2023-04-29T06:46:44.048Z,12.35
2023-04-29T06:47:50.484Z,12.42
2023-04-29T06:48:58.997Z,12.47
2023-04-29T06:50:10.071Z,12.54
2023-04-29T06:51:29.495Z,12.55
2023-04-29T06:52:38.807Z,12.58
2023-04-29T06:53:47.417Z,12.62
2023-04-29T06:55:02.053Z,12.71
2023-04-29T06:56:23.989Z,12.76
2023-04-29T06:57:29.765Z,12.81
2023-04-29T06:58:34.854Z,12.83
2023-04-29T06:59:44.292Z,12.93
2023-04-29T07:00:55.041Z,12.99
2023-04-29T07:01:59.992Z,13.07
2023-04-29T07:03:17.255Z,13.13
2023-04-29T07:04:33.553Z,13.22
2023-04-29T07:05:48.211Z,13.29
2023-04-29T07:06:57.127Z,13.38
2023-04-29T07:08:27.633Z,13.46
2023-04-29T07:09:38.914Z,13.45
2023-04-29T07:10:44.528Z,13.47
2023-04-29T07:11:59.573Z,13.52
2023-04-29T07:13:09.525Z,13.45
2023-04-29T07:14:30.569Z,13.55
2023-04-29T07:15:37.789Z,13.60
2023-04-29T07:16:54.388Z,13.67
2023-04-29T07:18:15.079Z,13.74
2023-04-29T07:19:21.618Z,13.82
2023-04-29T07:20:28.496Z,13.86
2023-04-29T07:21:34.655Z,13.96
2023-04-29T07:22:42.554Z,14.00
2023-04-29T07:23:49.817Z,14.06
2023-04-29T07:24:57.266Z,14.20
2023-04-29T07:26:33.887Z,14.43
2023-04-29T07:27:41.338Z,14.59
2023-04-29T07:29:03.456Z,14.86
2023-04-29T07:30:22.097Z,14.96
2023-04-29T07:31:38.973Z,15.34
2023-04-29T07:32:43.117Z,15.55
2023-04-29T07:33:48.971Z,15.81
2023-04-29T07:34:53.304Z,15.97
2023-04-29T07:35:57.914Z,16.18
2023-04-29T07:37:01.695Z,16.37
2023-04-29T07:38:05.643Z,16.58
2023-04-29T07:39:09.448Z,16.80
2023-04-29T07:40:13.506Z,17.02
2023-04-29T07:41:17.453Z,17.20
2023-04-29T07:42:22.135Z,17.08
2023-04-29T07:43:26.214Z,17.27
2023-04-29T07:44:29.900Z,17.71
2023-04-29T07:45:35.321Z,18.11
2023-04-29T07:46:48.347Z,18.36
2023-04-29T07:47:52.779Z,18.73
2023-04-29T07:49:03.061Z,19.12
2023-04-29T07:50:13.246Z,19.10
2023-04-29T07:51:22.089Z,19.45
2023-04-29T07:52:30.430Z,19.80
2023-04-29T07:53:37.037Z,20.05
2023-04-29T07:54:48.062Z,20.42
2023-04-29T07:55:55.656Z,20.77
2023-04-29T07:57:02.589Z,21.04
2023-04-29T07:58:15.226Z,21.30
2023-04-29T07:59:23.460Z,21.50
2023-04-29T08:01:52.415Z,21.64
2023-04-29T08:03:00.098Z,21.31
2023-04-29T08:04:18.870Z,21.27
2023-04-29T08:05:25.621Z,21.65
2023-04-29T08:06:39.758Z,21.65
2023-04-29T08:07:47.673Z,21.42
2023-04-29T08:08:53.049Z,21.31
2023-04-29T08:09:58.281Z,21.50
2023-04-29T08:11:10.812Z,21.33
2023-04-29T08:12:18.128Z,21.16
2023-04-29T08:13:27.263Z,20.91
2023-04-29T08:14:31.786Z,20.82
2023-04-29T08:15:35.693Z,20.80
2023-04-29T08:16:40.680Z,20.81
2023-04-29T08:17:45.361Z,20.97
2023-04-29T08:18:49.225Z,21.10
2023-04-29T08:20:01.514Z,20.98
2023-04-29T08:21:06.870Z,20.83
2023-04-29T08:22:17.812Z,20.83
2023-04-29T08:23:25.792Z,20.71
2023-04-29T08:24:34.185Z,20.66
2023-04-29T08:25:43.791Z,20.51
2023-04-29T08:26:50.247Z,20.37
2023-04-29T08:27:54.004Z,20.19
2023-04-29T08:28:57.942Z,20.12
2023-04-29T08:30:01.742Z,19.93
2023-04-29T08:31:11.294Z,19.82
2023-04-29T08:32:15.271Z,19.83
2023-04-29T08:33:21.872Z,19.79
2023-04-29T08:34:27.062Z,19.60
2023-04-29T08:35:31.409Z,19.61
2023-04-29T08:36:37.178Z,19.62
2023-04-29T08:37:41.259Z,19.59
2023-04-29T08:38:45.679Z,19.55
2023-04-29T08:39:49.715Z,19.46
2023-04-29T08:40:53.705Z,19.43
2023-04-29T08:41:59.299Z,19.38
2023-04-29T08:43:05.343Z,19.30
2023-04-29T08:44:09.453Z,19.36
2023-04-29T08:45:19.307Z,19.27
2023-04-29T08:46:27.207Z,19.21
2023-04-29T08:47:33.522Z,19.19
2023-04-29T08:48:42.568Z,19.13
2023-04-29T08:49:47.992Z,19.06
2023-04-29T08:50:52.071Z,19.06
2023-04-29T08:51:56.612Z,19.06
2023-04-29T08:53:00.590Z,19.12
2023-04-29T08:54:08.159Z,19.15
2023-04-29T08:55:12.098Z,19.17
2023-04-29T08:56:23.358Z,19.13
2023-04-29T08:57:31.095Z,19.18
2023-04-29T08:58:38.526Z,19.19
2023-04-29T08:59:43.689Z,19.17
2023-04-29T09:00:49.416Z,19.15
2023-04-29T09:01:56.578Z,19.06
2023-04-29T09:03:13.197Z,18.98
2023-04-29T09:04:27.034Z,18.97
2023-04-29T09:05:34.661Z,18.93
2023-04-29T09:06:38.656Z,18.91
2023-04-29T09:07:44.227Z,18.92
2023-04-29T09:08:51.335Z,18.91
2023-04-29T09:09:58.230Z,18.92
2023-04-29T09:11:02.986Z,18.89
2023-04-29T09:12:22.670Z,18.81
2023-04-29T09:13:32.046Z,18.81
2023-04-29T09:14:37.539Z,18.81
2023-04-29T09:15:42.828Z,18.83
2023-04-29T09:16:49.604Z,18.81
2023-04-29T09:17:53.977Z,18.89
2023-04-29T09:18:58.432Z,18.93
2023-04-29T09:20:02.543Z,18.97
2023-04-29T09:21:22.664Z,19.08
2023-04-29T09:22:26.844Z,19.10
2023-04-29T09:23:38.612Z,19.10
2023-04-29T09:24:43.885Z,19.14
2023-04-29T09:25:58.200Z,19.19
2023-04-29T09:27:06.712Z,19.29
2023-04-29T09:28:19.604Z,19.32
2023-04-29T09:29:24.394Z,19.27
2023-04-29T09:30:30.251Z,19.12
2023-04-29T09:31:34.087Z,19.30
2023-04-29T09:32:39.373Z,19.31
2023-04-29T09:33:59.117Z,19.40
2023-04-29T09:35:28.427Z,19.04
2023-04-29T09:36:46.986Z,19.21
2023-04-29T09:37:51.051Z,19.26
2023-04-29T09:38:56.023Z,19.37
2023-04-29T09:40:00.308Z,19.35
2023-04-29T09:41:12.285Z,19.44
2023-04-29T09:42:17.052Z,19.63
2023-04-29T09:43:21.677Z,19.62
2023-04-29T09:44:38.082Z,19.59
2023-04-29T09:45:48.149Z,19.51
2023-04-29T09:47:11.987Z,19.49
2023-04-29T09:48:17.327Z,19.45
2023-04-29T09:49:27.375Z,19.41
2023-04-29T09:50:32.748Z,19.34
2023-04-29T09:52:02.958Z,19.32
2023-04-29T09:53:09.616Z,19.30
2023-04-29T09:54:25.587Z,19.33
2023-04-29T09:55:30.232Z,19.27
2023-04-29T09:56:55.081Z,19.20
2023-04-29T09:58:00.796Z,19.19
2023-04-29T09:59:10.693Z,19.24
2023-04-29T10:00:15.406Z,19.26
2023-04-29T10:01:22.618Z,19.25
2023-04-29T10:02:28.636Z,19.39
2023-04-29T10:03:39.782Z,19.46
2023-04-29T10:04:47.274Z,19.49
2023-04-29T10:05:51.164Z,19.56
2023-04-29T10:06:56.971Z,19.63
2023-04-29T10:08:03.038Z,19.70
2023-04-29T10:09:14.963Z,19.69
2023-04-29T10:10:21.901Z,19.52
2023-04-29T10:11:27.293Z,19.63
2023-04-29T10:12:39.029Z,19.52
2023-04-29T10:13:44.406Z,19.37
2023-04-29T10:15:12.776Z,19.50
2023-04-29T10:16:30.930Z,19.58
2023-04-29T10:17:47.354Z,19.66
2023-04-29T10:18:56.518Z,19.69
2023-04-29T10:20:06.643Z,19.77
2023-04-29T10:21:14.102Z,19.87
2023-04-29T10:22:33.973Z,19.91
2023-04-29T10:23:38.788Z,19.89
2023-04-29T10:24:48.962Z,19.88
2023-04-29T10:25:56.051Z,19.88
2023-04-29T10:27:00.929Z,19.77
2023-04-29T10:28:09.988Z,19.77
2023-04-29T10:29:17.988Z,19.80
2023-04-29T10:30:22.947Z,19.84
2023-04-29T10:31:28.245Z,19.86
2023-04-29T10:32:49.755Z,19.54
2023-04-29T10:33:58.327Z,19.36
2023-04-29T10:35:04.088Z,19.12
2023-04-29T10:36:12.094Z,18.91
2023-04-29T10:37:20.850Z,19.06
2023-04-29T10:38:37.717Z,19.05
2023-04-29T10:40:11.912Z,19.00
2023-04-29T10:41:49.499Z,18.83
2023-04-29T10:42:58.583Z,18.86
2023-04-29T10:44:04.748Z,18.84
2023-04-29T10:45:27.687Z,18.89
2023-04-29T10:46:31.976Z,18.90
2023-04-29T10:47:36.458Z,18.96
2023-04-29T10:48:41.460Z,18.97
2023-04-29T10:50:05.251Z,18.85
2023-04-29T10:51:09.254Z,18.68
2023-04-29T10:52:17.546Z,18.65
2023-04-29T10:53:22.548Z,18.74
2023-04-29T10:54:30.020Z,18.82
2023-04-29T10:55:41.486Z,18.81
2023-04-29T10:56:57.419Z,18.84
2023-04-29T10:58:39.250Z,18.88
2023-04-29T10:59:43.827Z,18.97
2023-04-29T11:00:51.718Z,19.01
2023-04-29T11:01:59.811Z,19.14
2023-04-29T11:03:35.820Z,19.26
2023-04-29T11:05:15.687Z,19.34
2023-04-29T11:06:36.713Z,19.43
2023-04-29T11:07:41.911Z,19.49
2023-04-29T11:08:48.612Z,19.54
2023-04-29T11:09:58.428Z,19.39
2023-04-29T11:11:19.937Z,19.50
2023-04-29T11:12:24.562Z,19.43
2023-04-29T11:13:32.791Z,19.38
2023-04-29T11:14:41.085Z,19.47
2023-04-29T11:15:48.070Z,19.50
2023-04-29T11:17:10.712Z,19.55
2023-04-29T11:18:25.325Z,19.43
2023-04-29T11:19:41.736Z,19.44
2023-04-29T11:21:11.252Z,19.46
2023-04-29T11:22:36.057Z,19.52
2023-04-29T11:23:46.646Z,19.57
2023-04-29T11:25:03.108Z,19.52
2023-04-29T11:26:13.248Z,19.44
2023-04-29T11:27:21.049Z,19.45
2023-04-29T11:28:28.778Z,19.35
2023-04-29T11:29:33.776Z,19.27
2023-04-29T11:30:40.185Z,19.35
2023-04-29T11:31:44.848Z,19.33
2023-04-29T11:32:51.358Z,19.37
2023-04-29T11:33:55.465Z,19.32
2023-04-29T11:35:12.794Z,19.28
2023-04-29T11:36:19.487Z,19.25
2023-04-29T11:37:33.011Z,19.16
2023-04-29T11:38:42.632Z,19.07
2023-04-29T11:39:47.239Z,18.95
2023-04-29T11:40:52.129Z,18.95
2023-04-29T11:42:09.495Z,18.91
2023-04-29T11:43:19.106Z,18.88
2023-04-29T11:44:23.879Z,18.86
2023-04-29T11:45:28.311Z,18.81
2023-04-29T11:46:33.037Z,18.76
2023-04-29T11:47:37.468Z,18.74
2023-04-29T11:48:49.116Z,18.74
2023-04-29T11:49:52.762Z,18.70
2023-04-29T11:51:00.265Z,18.70
2023-04-29T11:52:04.878Z,18.75
2023-04-29T11:53:08.940Z,18.72
2023-04-29T11:54:12.990Z,18.72
2023-04-29T11:55:17.556Z,18.76
2023-04-29T11:56:28.210Z,18.81
2023-04-29T11:57:35.119Z,18.81
2023-04-29T11:59:09.040Z,18.86
2023-04-29T12:00:15.037Z,18.90
2023-04-29T12:01:22.082Z,18.89
2023-04-29T12:02:34.034Z,18.90
2023-04-29T12:03:38.841Z,18.90
2023-04-29T12:04:47.430Z,18.87
2023-04-29T12:05:56.544Z,18.90
2023-04-29T12:07:04.265Z,18.94
2023-04-29T12:08:08.260Z,18.93
2023-04-29T12:09:12.752Z,18.95
2023-04-29T12:10:17.004Z,18.95
2023-04-29T12:11:22.148Z,18.98
2023-04-29T12:12:31.768Z,18.95
2023-04-29T12:13:37.020Z,18.94
2023-04-29T12:14:42.635Z,18.92
2023-04-29T12:15:49.381Z,18.92
2023-04-29T12:16:54.464Z,18.91
2023-04-29T12:17:58.727Z,18.85
2023-04-29T12:19:11.843Z,18.84
2023-04-29T12:20:19.782Z,18.82
2023-04-29T12:21:23.649Z,18.82
2023-04-29T12:22:36.169Z,18.72
2023-04-29T12:23:42.255Z,18.79
2023-04-29T12:24:46.285Z,18.82
2023-04-29T12:25:56.648Z,18.82
2023-04-29T12:27:02.146Z,18.80
2023-04-29T12:28:16.132Z,18.80
2023-04-29T12:29:25.286Z,18.82
2023-04-29T12:30:29.262Z,18.85
2023-04-29T12:31:35.634Z,18.87
2023-04-29T12:32:40.102Z,18.86
2023-04-29T12:33:44.700Z,18.90
2023-04-29T12:34:50.710Z,18.89
2023-04-29T12:35:59.966Z,18.82
2023-04-29T12:37:03.982Z,18.88
2023-04-29T12:38:08.824Z,18.87
2023-04-29T12:39:12.673Z,18.91
2023-04-29T12:40:17.686Z,18.93
2023-04-29T12:41:45.306Z,18.94
2023-04-29T12:42:49.590Z,18.99
2023-04-29T12:43:55.722Z,19.00
2023-04-29T12:45:32.409Z,18.96
2023-04-29T12:46:41.788Z,18.93
2023-04-29T12:47:46.676Z,18.95
2023-04-29T12:48:50.945Z,18.97
2023-04-29T12:49:57.720Z,18.96
2023-04-29T12:51:05.647Z,19.04
2023-04-29T12:52:13.602Z,19.07
2023-04-29T12:53:17.424Z,19.09
2023-04-29T12:54:21.763Z,19.11
2023-04-29T12:55:27.023Z,19.09
2023-04-29T12:56:36.252Z,19.09
2023-04-29T12:57:40.515Z,19.10
2023-04-29T12:58:45.859Z,19.12
2023-04-29T12:59:49.959Z,19.13
2023-04-29T13:00:54.328Z,19.04
2023-04-29T13:01:59.093Z,18.96
2023-04-29T13:03:04.763Z,18.89
2023-04-29T13:04:11.097Z,18.87
2023-04-29T13:05:16.009Z,18.92
2023-04-29T13:06:20.831Z,18.93
2023-04-29T13:07:27.167Z,18.91
2023-04-29T13:08:31.521Z,18.89
2023-04-29T13:09:38.301Z,18.88
2023-04-29T13:10:43.442Z,18.89
2023-04-29T13:11:47.431Z,18.92
2023-04-29T13:12:52.347Z,18.90
2023-04-29T13:13:57.253Z,18.94
2023-04-29T13:15:01.236Z,18.94
2023-04-29T13:16:05.912Z,18.93
2023-04-29T13:17:11.072Z,18.92
2023-04-29T13:18:15.961Z,18.90
2023-04-29T13:19:38.200Z,18.93
2023-04-29T13:20:46.137Z,18.87
2023-04-29T13:21:51.960Z,18.83
2023-04-29T13:22:56.402Z,18.77
2023-04-29T13:24:00.183Z,18.76
2023-04-29T13:25:16.902Z,18.76
2023-04-29T13:26:21.114Z,18.69
2023-04-29T13:27:25.962Z,18.74
2023-04-29T13:28:29.983Z,18.74
2023-04-29T13:29:35.972Z,18.74
2023-04-29T13:30:39.886Z,18.74
2023-04-29T13:31:44.772Z,18.62
2023-04-29T13:32:55.218Z,18.66
2023-04-29T13:34:02.603Z,18.67
2023-04-29T13:35:13.291Z,18.66
2023-04-29T13:36:17.242Z,18.68
2023-04-29T13:37:21.547Z,18.67
2023-04-29T13:38:25.911Z,18.67
2023-04-29T13:39:30.312Z,18.63
2023-04-29T13:40:38.832Z,18.63
2023-04-29T13:41:48.542Z,18.57
2023-04-29T13:43:02.107Z,18.57
2023-04-29T13:45:23.772Z,18.50
2023-04-29T13:46:31.435Z,18.45
2023-04-29T13:47:55.018Z,18.42
2023-04-29T13:51:56.103Z,18.35
2023-04-29T13:53:19.317Z,18.28
2023-04-29T13:56:01.824Z,18.27
2023-04-29T13:57:05.027Z,18.25
2023-04-29T14:00:54.581Z,18.17
2023-04-29T14:03:58.929Z,18.14
2023-04-29T14:05:03.183Z,18.10
2023-04-29T14:06:12.099Z,18.07
2023-04-29T14:07:16.340Z,18.07
2023-04-29T14:08:20.359Z,18.03
2023-04-29T14:09:26.496Z,18.02
2023-04-29T14:10:33.993Z,18.01
2023-04-29T14:11:38.459Z,17.99
2023-04-29T14:12:42.531Z,17.95
2023-04-29T14:13:46.825Z,17.92
2023-04-29T14:14:50.708Z,17.91
2023-04-29T14:15:55.033Z,17.89
2023-04-29T14:16:59.173Z,17.87
2023-04-29T14:18:03.454Z,17.87
2023-04-29T14:19:16.690Z,17.85
2023-04-29T14:20:21.556Z,17.85
2023-04-29T14:21:26.752Z,17.86
2023-04-29T14:22:31.074Z,17.88
2023-04-29T14:23:36.579Z,17.89
2023-04-29T14:24:40.620Z,17.86
2023-04-29T14:25:45.533Z,17.87
2023-04-29T14:26:50.340Z,17.88
2023-04-29T14:27:58.111Z,17.88
2023-04-29T14:29:09.265Z,17.80
2023-04-29T14:30:13.763Z,17.82
2023-04-29T14:31:18.724Z,17.79
2023-04-29T14:32:23.173Z,17.76
2023-04-29T14:33:28.343Z,17.77
2023-04-29T14:34:34.965Z,17.71
2023-04-29T14:35:39.581Z,17.73
2023-04-29T14:36:46.552Z,17.71
2023-04-29T14:37:50.881Z,17.70
2023-04-29T14:38:55.209Z,17.72
2023-04-29T14:39:59.375Z,17.72
2023-04-29T14:41:03.698Z,17.74
2023-04-29T14:42:15.556Z,17.68
2023-04-29T14:43:20.300Z,17.65
2023-04-29T14:44:25.181Z,17.68
2023-04-29T14:45:29.919Z,17.60
2023-04-29T14:46:34.577Z,17.61
2023-04-29T14:47:55.563Z,17.60
2023-04-29T14:49:03.483Z,17.59
2023-04-29T14:50:14.113Z,17.53
2023-04-29T14:51:23.683Z,17.53
2023-04-29T14:52:28.074Z,17.55
2023-04-29T14:53:43.104Z,17.54
2023-04-29T14:54:49.705Z,17.54
2023-04-29T14:55:55.103Z,17.55
2023-04-29T14:57:00.915Z,17.56
2023-04-29T14:58:05.533Z,17.52
2023-04-29T14:59:12.117Z,17.54
2023-04-29T15:00:17.643Z,17.54